Ana Sayfa
METAR-TAF:

METAR-TAF

Havaalanları :

Cidde, Suudi Arabistan

Enlem: 21-42N, Boylam: 039-11E, yükseklik: 15 m

Güncel hava durumu gözlemi

Rapor saat 13:00 UTC de 48 dakika önce yapıldı.
Rüzgar kuzeybatıdan 13 kt
Sıcaklık 27°C
Nem 42%
Basınç 1014 hPa
Görüş mesafesi 10 km veya daha fazla
1500 m altında bulut yok ve kümülonimbus yok

METAR: OEJN 221300Z 31013KT CAVOK 27/13 Q1014 NOSIG

Saat: 16:48 (13:48 UTC)

Tahmin

Rapor saat 11:00 UTC de 2 saat ve 48 dakika önce yapıldı.
Ayın 22'si saat 12 UTC'den ayın 23'si saat 18 UTC'ye kadar geçerli Tahmin
Rüzgar kuzeydan 14 kt
Görüş mesafesi 10 km veya daha fazla
1500 m altında bulut yok ve kümülonimbus yok

TAF: OEJN 221100Z 2212/2318 35014KT CAVOK

4.000'den fazla havaalanı için hava durumu gözlemleri ve tahminleri (METAR ve TAF raporları).

Kullanılabilir istasyonlar harita üzerinde sarı ve kırmızı noktalarla gösterilir.

İstasyonun adını görmek için fareyi noktanın üzerinde gezdirin.

Sonrasında hava gözlem ve tahminlerini görmek için tıklayın.

Haritayı değiştirmek için: yaklaştırmak için siyah artı işaretli yeşil düğmeye ve uzaklaştırmak için de eksi işaretli düğmeye hızla tıklayın; bitişik haritalar için yeşil okları kullanın.


METAR-TAF: